sensor_id;sensor_type;location;lat;lon;timestamp;P1;durP1;ratioP1;P2;durP2;ratioP2
39218;SDS011;24934;52.752;6.964;2023-12-14T00:01:29;27.63;;;24.93;;
39218;SDS011;24934;52.752;6.964;2023-12-14T00:03:55;28.00;;;24.73;;
39218;SDS011;24934;52.752;6.964;2023-12-14T00:06:21;27.13;;;24.63;;
39218;SDS011;24934;52.752;6.964;2023-12-14T00:08:47;26.93;;;24.23;;
39218;SDS011;24934;52.752;6.964;2023-12-14T00:11:13;26.83;;;24.30;;
39218;SDS011;24934;52.752;6.964;2023-12-14T00:13:39;28.37;;;25.57;;
39218;SDS011;24934;52.752;6.964;2023-12-14T00:16:05;27.73;;;25.03;;
39218;SDS011;24934;52.752;6.964;2023-12-14T00:18:31;28.20;;;25.40;;
39218;SDS011;24934;52.752;6.964;2023-12-14T00:20:57;28.37;;;25.57;;
39218;SDS011;24934;52.752;6.964;2023-12-14T00:23:24;27.93;;;25.33;;
39218;SDS011;24934;52.752;6.964;2023-12-14T00:25:50;28.63;;;25.93;;
39218;SDS011;24934;52.752;6.964;2023-12-14T00:28:16;29.37;;;26.37;;
39218;SDS011;24934;52.752;6.964;2023-12-14T00:30:42;28.73;;;26.03;;
39218;SDS011;24934;52.752;6.964;2023-12-14T00:33:08;28.77;;;25.87;;
39218;SDS011;24934;52.752;6.964;2023-12-14T00:35:34;29.90;;;26.90;;
39218;SDS011;24934;52.752;6.964;2023-12-14T00:38:00;29.17;;;26.37;;
39218;SDS011;24934;52.752;6.964;2023-12-14T00:40:26;28.00;;;25.27;;
39218;SDS011;24934;52.752;6.964;2023-12-14T00:42:52;28.60;;;25.83;;
39218;SDS011;24934;52.752;6.964;2023-12-14T00:45:18;28.37;;;25.67;;
39218;SDS011;24934;52.752;6.964;2023-12-14T00:47:44;28.87;;;26.03;;
39218;SDS011;24934;52.752;6.964;2023-12-14T00:50:10;28.37;;;25.67;;
39218;SDS011;24934;52.752;6.964;2023-12-14T00:52:36;27.70;;;25.10;;
39218;SDS011;24934;52.752;6.964;2023-12-14T00:55:02;28.40;;;25.67;;
39218;SDS011;24934;52.752;6.964;2023-12-14T00:57:28;28.10;;;25.40;;
39218;SDS011;24934;52.752;6.964;2023-12-14T00:59:55;28.17;;;25.53;;
39218;SDS011;24934;52.752;6.964;2023-12-14T01:02:20;28.73;;;25.83;;
39218;SDS011;24934;52.752;6.964;2023-12-14T01:04:46;27.40;;;24.80;;
39218;SDS011;24934;52.752;6.964;2023-12-14T01:07:12;27.57;;;24.97;;
39218;SDS011;24934;52.752;6.964;2023-12-14T01:09:38;28.20;;;25.50;;
39218;SDS011;24934;52.752;6.964;2023-12-14T01:12:04;26.70;;;24.13;;
39218;SDS011;24934;52.752;6.964;2023-12-14T01:14:29;27.43;;;24.83;;
39218;SDS011;24934;52.752;6.964;2023-12-14T01:16:55;27.43;;;24.77;;
39218;SDS011;24934;52.752;6.964;2023-12-14T01:19:21;26.60;;;24.10;;
39218;SDS011;24934;52.752;6.964;2023-12-14T01:21:46;25.37;;;22.97;;
39218;SDS011;24934;52.752;6.964;2023-12-14T01:24:12;25.27;;;22.97;;
39218;SDS011;24934;52.752;6.964;2023-12-14T01:26:38;26.40;;;23.90;;
39218;SDS011;24934;52.752;6.964;2023-12-14T01:29:03;27.07;;;24.40;;
39218;SDS011;24934;52.752;6.964;2023-12-14T01:31:29;24.60;;;22.20;;
39218;SDS011;24934;52.752;6.964;2023-12-14T01:33:54;26.30;;;23.70;;
39218;SDS011;24934;52.752;6.964;2023-12-14T01:36:23;25.90;;;23.43;;
39218;SDS011;24934;52.752;6.964;2023-12-14T01:38:50;25.17;;;22.67;;
39218;SDS011;24934;52.752;6.964;2023-12-14T01:41:21;26.50;;;23.83;;
39218;SDS011;24934;52.752;6.964;2023-12-14T01:43:46;26.43;;;23.77;;
39218;SDS011;24934;52.752;6.964;2023-12-14T01:46:12;26.20;;;23.50;;
39218;SDS011;24934;52.752;6.964;2023-12-14T01:48:39;27.07;;;24.47;;
39218;SDS011;24934;52.752;6.964;2023-12-14T01:51:05;25.47;;;23.17;;
39218;SDS011;24934;52.752;6.964;2023-12-14T01:53:31;25.87;;;23.47;;
39218;SDS011;24934;52.752;6.964;2023-12-14T01:55:57;26.13;;;23.53;;
39218;SDS011;24934;52.752;6.964;2023-12-14T01:58:22;25.23;;;22.70;;
39218;SDS011;24934;52.752;6.964;2023-12-14T02:03:53;24.73;;;22.23;;
39218;SDS011;24934;52.752;6.964;2023-12-14T02:06:20;25.27;;;22.77;;
39218;SDS011;24934;52.752;6.964;2023-12-14T02:08:45;24.50;;;22.20;;
39218;SDS011;24934;52.752;6.964;2023-12-14T02:11:11;24.93;;;22.47;;
39218;SDS011;24934;52.752;6.964;2023-12-14T02:13:37;25.00;;;22.50;;
39218;SDS011;24934;52.752;6.964;2023-12-14T02:16:06;25.70;;;23.07;;
39218;SDS011;24934;52.752;6.964;2023-12-14T02:18:31;25.73;;;22.67;;
39218;SDS011;24934;52.752;6.964;2023-12-14T02:20:57;24.97;;;22.37;;
39218;SDS011;24934;52.752;6.964;2023-12-14T02:23:22;25.70;;;23.03;;
39218;SDS011;24934;52.752;6.964;2023-12-14T02:25:48;25.97;;;23.17;;
39218;SDS011;24934;52.752;6.964;2023-12-14T02:28:14;26.37;;;23.30;;
39218;SDS011;24934;52.752;6.964;2023-12-14T02:30:39;26.47;;;23.70;;
39218;SDS011;24934;52.752;6.964;2023-12-14T02:33:05;31.10;;;24.17;;
39218;SDS011;24934;52.752;6.964;2023-12-14T02:35:31;26.07;;;23.33;;
39218;SDS011;24934;52.752;6.964;2023-12-14T02:37:57;26.27;;;23.37;;
39218;SDS011;24934;52.752;6.964;2023-12-14T02:40:22;26.20;;;23.40;;
39218;SDS011;24934;52.752;6.964;2023-12-14T02:42:48;27.80;;;24.10;;
39218;SDS011;24934;52.752;6.964;2023-12-14T02:45:13;27.43;;;23.57;;
39218;SDS011;24934;52.752;6.964;2023-12-14T02:47:39;28.13;;;24.20;;
39218;SDS011;24934;52.752;6.964;2023-12-14T02:50:05;26.40;;;22.97;;
39218;SDS011;24934;52.752;6.964;2023-12-14T02:52:31;28.80;;;23.83;;
39218;SDS011;24934;52.752;6.964;2023-12-14T02:54:56;26.90;;;23.57;;
39218;SDS011;24934;52.752;6.964;2023-12-14T02:57:22;29.80;;;23.77;;
39218;SDS011;24934;52.752;6.964;2023-12-14T02:59:47;26.97;;;23.40;;
39218;SDS011;24934;52.752;6.964;2023-12-14T03:02:13;27.33;;;24.43;;
39218;SDS011;24934;52.752;6.964;2023-12-14T03:04:39;27.77;;;23.90;;
39218;SDS011;24934;52.752;6.964;2023-12-14T03:07:05;30.53;;;25.17;;
39218;SDS011;24934;52.752;6.964;2023-12-14T03:09:31;28.53;;;25.47;;
39218;SDS011;24934;52.752;6.964;2023-12-14T03:11:57;26.27;;;23.53;;
39218;SDS011;24934;52.752;6.964;2023-12-14T03:14:23;28.40;;;24.80;;
39218;SDS011;24934;52.752;6.964;2023-12-14T03:16:48;27.07;;;24.37;;
39218;SDS011;24934;52.752;6.964;2023-12-14T03:19:15;29.87;;;25.60;;
39218;SDS011;24934;52.752;6.964;2023-12-14T03:21:41;27.20;;;24.40;;
39218;SDS011;24934;52.752;6.964;2023-12-14T03:24:08;27.40;;;24.43;;
39218;SDS011;24934;52.752;6.964;2023-12-14T03:26:34;27.47;;;24.43;;
39218;SDS011;24934;52.752;6.964;2023-12-14T03:29:00;28.23;;;25.00;;
39218;SDS011;24934;52.752;6.964;2023-12-14T03:31:26;28.40;;;25.27;;
39218;SDS011;24934;52.752;6.964;2023-12-14T03:33:51;27.57;;;24.67;;
39218;SDS011;24934;52.752;6.964;2023-12-14T03:36:17;27.77;;;24.10;;
39218;SDS011;24934;52.752;6.964;2023-12-14T03:38:42;27.50;;;24.57;;
39218;SDS011;24934;52.752;6.964;2023-12-14T03:41:08;26.93;;;24.23;;
39218;SDS011;24934;52.752;6.964;2023-12-14T03:43:39;26.83;;;24.13;;
39218;SDS011;24934;52.752;6.964;2023-12-14T03:46:05;26.63;;;23.83;;
39218;SDS011;24934;52.752;6.964;2023-12-14T03:48:31;26.73;;;24.03;;
39218;SDS011;24934;52.752;6.964;2023-12-14T03:50:57;26.60;;;23.83;;
39218;SDS011;24934;52.752;6.964;2023-12-14T03:53:26;25.70;;;23.10;;
39218;SDS011;24934;52.752;6.964;2023-12-14T03:55:53;26.93;;;24.03;;
39218;SDS011;24934;52.752;6.964;2023-12-14T03:58:19;27.70;;;24.67;;
39218;SDS011;24934;52.752;6.964;2023-12-14T04:00:45;27.13;;;24.33;;
39218;SDS011;24934;52.752;6.964;2023-12-14T04:03:14;25.90;;;23.40;;
39218;SDS011;24934;52.752;6.964;2023-12-14T04:05:40;26.20;;;23.47;;
39218;SDS011;24934;52.752;6.964;2023-12-14T04:08:06;25.87;;;23.27;;
39218;SDS011;24934;52.752;6.964;2023-12-14T04:10:32;25.10;;;22.60;;
39218;SDS011;24934;52.752;6.964;2023-12-14T04:12:58;24.73;;;22.07;;
39218;SDS011;24934;52.752;6.964;2023-12-14T04:15:24;24.73;;;22.23;;
39218;SDS011;24934;52.752;6.964;2023-12-14T04:17:50;25.10;;;22.50;;
39218;SDS011;24934;52.752;6.964;2023-12-14T04:20:16;23.37;;;21.07;;
39218;SDS011;24934;52.752;6.964;2023-12-14T04:22:45;25.50;;;22.90;;
39218;SDS011;24934;52.752;6.964;2023-12-14T04:25:12;25.07;;;22.47;;
39218;SDS011;24934;52.752;6.964;2023-12-14T04:27:38;24.53;;;22.03;;
39218;SDS011;24934;52.752;6.964;2023-12-14T04:30:04;24.37;;;22.10;;
39218;SDS011;24934;52.752;6.964;2023-12-14T04:32:35;24.27;;;21.87;;
39218;SDS011;24934;52.752;6.964;2023-12-14T04:35:01;22.63;;;20.43;;
39218;SDS011;24934;52.752;6.964;2023-12-14T04:37:27;23.23;;;20.93;;
39218;SDS011;24934;52.752;6.964;2023-12-14T04:39:53;21.87;;;19.87;;
39218;SDS011;24934;52.752;6.964;2023-12-14T04:42:19;22.77;;;20.67;;
39218;SDS011;24934;52.752;6.964;2023-12-14T04:44:45;22.30;;;20.20;;
39218;SDS011;24934;52.752;6.964;2023-12-14T04:47:11;22.60;;;20.50;;
39218;SDS011;24934;52.752;6.964;2023-12-14T04:49:37;22.00;;;19.80;;
39218;SDS011;24934;52.752;6.964;2023-12-14T04:52:03;22.90;;;20.73;;
39218;SDS011;24934;52.752;6.964;2023-12-14T04:54:30;22.57;;;20.37;;
39218;SDS011;24934;52.752;6.964;2023-12-14T04:56:59;22.30;;;20.00;;
39218;SDS011;24934;52.752;6.964;2023-12-14T04:59:25;23.70;;;21.40;;
39218;SDS011;24934;52.752;6.964;2023-12-14T05:01:51;23.03;;;20.63;;
39218;SDS011;24934;52.752;6.964;2023-12-14T05:04:17;22.37;;;20.03;;
39218;SDS011;24934;52.752;6.964;2023-12-14T05:06:43;21.97;;;19.77;;
39218;SDS011;24934;52.752;6.964;2023-12-14T05:09:09;21.00;;;18.80;;
39218;SDS011;24934;52.752;6.964;2023-12-14T05:11:36;21.93;;;19.80;;
39218;SDS011;24934;52.752;6.964;2023-12-14T05:14:02;20.97;;;18.70;;
39218;SDS011;24934;52.752;6.964;2023-12-14T05:16:28;22.07;;;19.77;;
39218;SDS011;24934;52.752;6.964;2023-12-14T05:18:55;22.83;;;20.53;;
39218;SDS011;24934;52.752;6.964;2023-12-14T05:21:27;20.30;;;18.20;;
39218;SDS011;24934;52.752;6.964;2023-12-14T05:23:53;20.53;;;18.43;;
39218;SDS011;24934;52.752;6.964;2023-12-14T05:26:19;20.67;;;18.53;;
39218;SDS011;24934;52.752;6.964;2023-12-14T05:28:45;21.60;;;18.70;;
39218;SDS011;24934;52.752;6.964;2023-12-14T05:31:14;20.93;;;19.00;;
39218;SDS011;24934;52.752;6.964;2023-12-14T05:33:40;22.97;;;20.03;;
39218;SDS011;24934;52.752;6.964;2023-12-14T05:36:06;21.60;;;19.43;;
39218;SDS011;24934;52.752;6.964;2023-12-14T05:38:35;21.30;;;19.00;;
39218;SDS011;24934;52.752;6.964;2023-12-14T05:41:01;22.13;;;19.83;;
39218;SDS011;24934;52.752;6.964;2023-12-14T05:43:27;21.67;;;19.50;;
39218;SDS011;24934;52.752;6.964;2023-12-14T05:45:53;22.13;;;20.03;;
39218;SDS011;24934;52.752;6.964;2023-12-14T05:48:19;23.07;;;20.73;;
39218;SDS011;24934;52.752;6.964;2023-12-14T05:50:45;22.27;;;20.07;;
39218;SDS011;24934;52.752;6.964;2023-12-14T05:53:11;24.40;;;20.70;;
39218;SDS011;24934;52.752;6.964;2023-12-14T05:55:38;22.80;;;20.40;;
39218;SDS011;24934;52.752;6.964;2023-12-14T05:58:05;24.67;;;22.27;;
39218;SDS011;24934;52.752;6.964;2023-12-14T06:00:32;24.00;;;21.63;;
39218;SDS011;24934;52.752;6.964;2023-12-14T06:03:00;23.43;;;20.93;;
39218;SDS011;24934;52.752;6.964;2023-12-14T06:05:26;22.37;;;20.07;;
39218;SDS011;24934;52.752;6.964;2023-12-14T06:07:52;23.23;;;20.83;;
39218;SDS011;24934;52.752;6.964;2023-12-14T06:10:18;22.60;;;20.30;;
39218;SDS011;24934;52.752;6.964;2023-12-14T06:12:44;22.47;;;20.37;;
39218;SDS011;24934;52.752;6.964;2023-12-14T06:15:13;23.37;;;21.00;;
39218;SDS011;24934;52.752;6.964;2023-12-14T06:17:39;24.27;;;21.77;;
39218;SDS011;24934;52.752;6.964;2023-12-14T06:20:07;22.97;;;20.80;;
39218;SDS011;24934;52.752;6.964;2023-12-14T06:22:36;24.60;;;21.53;;
39218;SDS011;24934;52.752;6.964;2023-12-14T06:25:02;24.33;;;21.80;;
39218;SDS011;24934;52.752;6.964;2023-12-14T06:27:28;24.00;;;21.60;;
39218;SDS011;24934;52.752;6.964;2023-12-14T06:29:55;24.37;;;21.97;;
39218;SDS011;24934;52.752;6.964;2023-12-14T06:32:21;26.03;;;22.17;;
39218;SDS011;24934;52.752;6.964;2023-12-14T06:34:47;24.83;;;22.23;;
39218;SDS011;24934;52.752;6.964;2023-12-14T06:37:13;27.43;;;23.40;;
39218;SDS011;24934;52.752;6.964;2023-12-14T06:39:40;24.57;;;22.07;;
39218;SDS011;24934;52.752;6.964;2023-12-14T06:42:06;24.63;;;22.23;;
39218;SDS011;24934;52.752;6.964;2023-12-14T06:44:33;25.47;;;22.90;;
39218;SDS011;24934;52.752;6.964;2023-12-14T06:46:59;24.27;;;21.67;;
39218;SDS011;24934;52.752;6.964;2023-12-14T06:49:25;24.97;;;22.10;;
39218;SDS011;24934;52.752;6.964;2023-12-14T06:51:51;23.33;;;21.03;;
39218;SDS011;24934;52.752;6.964;2023-12-14T06:54:17;23.50;;;21.10;;
39218;SDS011;24934;52.752;6.964;2023-12-14T06:56:44;22.70;;;20.50;;
39218;SDS011;24934;52.752;6.964;2023-12-14T06:59:10;22.03;;;19.93;;
39218;SDS011;24934;52.752;6.964;2023-12-14T07:01:36;21.77;;;19.57;;
39218;SDS011;24934;52.752;6.964;2023-12-14T07:04:02;21.90;;;19.60;;
39218;SDS011;24934;52.752;6.964;2023-12-14T07:06:28;22.03;;;19.80;;
39218;SDS011;24934;52.752;6.964;2023-12-14T07:08:55;23.00;;;20.70;;
39218;SDS011;24934;52.752;6.964;2023-12-14T07:11:21;22.90;;;20.57;;
39218;SDS011;24934;52.752;6.964;2023-12-14T07:13:47;23.23;;;20.83;;
39218;SDS011;24934;52.752;6.964;2023-12-14T07:16:13;22.87;;;20.60;;
39218;SDS011;24934;52.752;6.964;2023-12-14T07:18:40;21.80;;;19.70;;
39218;SDS011;24934;52.752;6.964;2023-12-14T07:21:06;22.37;;;20.07;;
39218;SDS011;24934;52.752;6.964;2023-12-14T07:23:33;22.57;;;20.37;;
39218;SDS011;24934;52.752;6.964;2023-12-14T07:25:59;22.97;;;20.57;;
39218;SDS011;24934;52.752;6.964;2023-12-14T07:28:25;23.37;;;20.97;;
39218;SDS011;24934;52.752;6.964;2023-12-14T07:30:51;22.30;;;19.87;;
39218;SDS011;24934;52.752;6.964;2023-12-14T07:33:18;22.20;;;19.83;;
39218;SDS011;24934;52.752;6.964;2023-12-14T07:35:44;22.87;;;20.47;;
39218;SDS011;24934;52.752;6.964;2023-12-14T07:38:10;23.47;;;20.70;;
39218;SDS011;24934;52.752;6.964;2023-12-14T07:40:36;22.80;;;20.50;;
39218;SDS011;24934;52.752;6.964;2023-12-14T07:43:06;23.17;;;20.87;;
39218;SDS011;24934;52.752;6.964;2023-12-14T07:45:32;25.60;;;20.83;;
39218;SDS011;24934;52.752;6.964;2023-12-14T07:48:01;24.67;;;20.23;;
39218;SDS011;24934;52.752;6.964;2023-12-14T07:50:29;24.33;;;21.43;;
39218;SDS011;24934;52.752;6.964;2023-12-14T07:52:55;24.90;;;21.63;;
39218;SDS011;24934;52.752;6.964;2023-12-14T07:55:24;26.37;;;21.83;;
39218;SDS011;24934;52.752;6.964;2023-12-14T07:57:49;24.23;;;21.63;;
39218;SDS011;24934;52.752;6.964;2023-12-14T08:00:18;27.00;;;23.20;;
39218;SDS011;24934;52.752;6.964;2023-12-14T08:02:44;25.33;;;22.30;;
39218;SDS011;24934;52.752;6.964;2023-12-14T08:05:10;28.53;;;22.50;;
39218;SDS011;24934;52.752;6.964;2023-12-14T08:07:36;25.33;;;22.70;;
39218;SDS011;24934;52.752;6.964;2023-12-14T08:10:02;25.90;;;23.23;;
39218;SDS011;24934;52.752;6.964;2023-12-14T08:12:28;28.00;;;23.60;;
39218;SDS011;24934;52.752;6.964;2023-12-14T08:14:54;27.70;;;24.90;;
39218;SDS011;24934;52.752;6.964;2023-12-14T08:17:20;29.13;;;24.30;;
39218;SDS011;24934;52.752;6.964;2023-12-14T08:19:46;26.07;;;23.47;;
39218;SDS011;24934;52.752;6.964;2023-12-14T08:22:13;26.63;;;23.60;;
39218;SDS011;24934;52.752;6.964;2023-12-14T08:24:40;27.73;;;24.30;;
39218;SDS011;24934;52.752;6.964;2023-12-14T08:27:06;28.73;;;25.60;;
39218;SDS011;24934;52.752;6.964;2023-12-14T08:29:32;30.63;;;26.27;;
39218;SDS011;24934;52.752;6.964;2023-12-14T08:31:58;29.40;;;26.00;;
39218;SDS011;24934;52.752;6.964;2023-12-14T08:34:25;30.60;;;27.03;;
39218;SDS011;24934;52.752;6.964;2023-12-14T08:36:51;32.30;;;25.90;;
39218;SDS011;24934;52.752;6.964;2023-12-14T08:39:18;32.40;;;26.17;;
39218;SDS011;24934;52.752;6.964;2023-12-14T08:41:45;29.33;;;26.10;;
39218;SDS011;24934;52.752;6.964;2023-12-14T08:44:12;28.90;;;25.77;;
39218;SDS011;24934;52.752;6.964;2023-12-14T08:46:38;29.53;;;25.57;;
39218;SDS011;24934;52.752;6.964;2023-12-14T08:49:04;30.50;;;27.13;;
39218;SDS011;24934;52.752;6.964;2023-12-14T08:51:30;32.57;;;26.57;;
39218;SDS011;24934;52.752;6.964;2023-12-14T08:53:56;29.77;;;26.33;;
39218;SDS011;24934;52.752;6.964;2023-12-14T08:56:22;31.03;;;26.63;;
39218;SDS011;24934;52.752;6.964;2023-12-14T08:58:48;34.33;;;27.07;;
39218;SDS011;24934;52.752;6.964;2023-12-14T09:01:19;35.03;;;25.93;;
39218;SDS011;24934;52.752;6.964;2023-12-14T09:03:46;30.83;;;26.57;;
39218;SDS011;24934;52.752;6.964;2023-12-14T09:06:12;31.33;;;26.93;;
39218;SDS011;24934;52.752;6.964;2023-12-14T09:08:39;30.90;;;25.97;;
39218;SDS011;24934;52.752;6.964;2023-12-14T09:11:05;32.73;;;26.90;;
39218;SDS011;24934;52.752;6.964;2023-12-14T09:13:31;29.93;;;26.37;;
39218;SDS011;24934;52.752;6.964;2023-12-14T09:15:57;32.43;;;26.13;;
39218;SDS011;24934;52.752;6.964;2023-12-14T09:18:23;33.47;;;27.10;;
39218;SDS011;24934;52.752;6.964;2023-12-14T09:20:49;32.70;;;26.63;;
39218;SDS011;24934;52.752;6.964;2023-12-14T09:23:15;30.93;;;26.37;;
39218;SDS011;24934;52.752;6.964;2023-12-14T09:25:41;30.20;;;25.87;;
39218;SDS011;24934;52.752;6.964;2023-12-14T09:28:07;29.37;;;26.13;;
39218;SDS011;24934;52.752;6.964;2023-12-14T09:30:33;30.83;;;26.37;;
39218;SDS011;24934;52.752;6.964;2023-12-14T09:32:59;30.07;;;25.73;;
39218;SDS011;24934;52.752;6.964;2023-12-14T09:35:25;33.63;;;27.00;;
39218;SDS011;24934;52.752;6.964;2023-12-14T09:37:51;31.73;;;25.77;;
39218;SDS011;24934;52.752;6.964;2023-12-14T09:40:18;32.90;;;27.17;;
39218;SDS011;24934;52.752;6.964;2023-12-14T09:42:44;29.50;;;26.37;;
39218;SDS011;24934;52.752;6.964;2023-12-14T09:45:12;30.37;;;26.77;;
39218;SDS011;24934;52.752;6.964;2023-12-14T09:47:38;29.63;;;26.20;;
39218;SDS011;24934;52.752;6.964;2023-12-14T09:50:04;33.33;;;25.97;;
39218;SDS011;24934;52.752;6.964;2023-12-14T09:52:31;30.37;;;26.50;;
39218;SDS011;24934;52.752;6.964;2023-12-14T09:54:58;32.13;;;25.33;;
39218;SDS011;24934;52.752;6.964;2023-12-14T09:57:24;30.00;;;26.40;;
39218;SDS011;24934;52.752;6.964;2023-12-14T09:59:54;29.73;;;25.57;;
39218;SDS011;24934;52.752;6.964;2023-12-14T10:02:20;30.43;;;25.63;;
39218;SDS011;24934;52.752;6.964;2023-12-14T10:04:50;30.93;;;25.83;;
39218;SDS011;24934;52.752;6.964;2023-12-14T10:07:16;33.60;;;26.73;;
39218;SDS011;24934;52.752;6.964;2023-12-14T10:09:42;29.57;;;25.60;;
39218;SDS011;24934;52.752;6.964;2023-12-14T10:12:08;29.10;;;24.93;;
39218;SDS011;24934;52.752;6.964;2023-12-14T10:14:35;30.27;;;24.83;;
39218;SDS011;24934;52.752;6.964;2023-12-14T10:19:42;32.10;;;26.43;;
39218;SDS011;24934;52.752;6.964;2023-12-14T10:22:09;29.17;;;25.50;;
39218;SDS011;24934;52.752;6.964;2023-12-14T10:24:35;32.50;;;26.27;;
39218;SDS011;24934;52.752;6.964;2023-12-14T10:27:05;33.47;;;25.33;;
39218;SDS011;24934;52.752;6.964;2023-12-14T10:29:36;30.50;;;25.00;;
39218;SDS011;24934;52.752;6.964;2023-12-14T10:32:04;32.27;;;24.97;;
39218;SDS011;24934;52.752;6.964;2023-12-14T10:34:32;34.27;;;26.63;;
39218;SDS011;24934;52.752;6.964;2023-12-14T10:36:58;31.40;;;25.90;;
39218;SDS011;24934;52.752;6.964;2023-12-14T10:39:24;32.57;;;25.63;;
39218;SDS011;24934;52.752;6.964;2023-12-14T10:41:51;33.00;;;26.73;;
39218;SDS011;24934;52.752;6.964;2023-12-14T10:44:20;34.70;;;26.93;;
39218;SDS011;24934;52.752;6.964;2023-12-14T10:46:50;32.43;;;25.63;;
39218;SDS011;24934;52.752;6.964;2023-12-14T10:49:17;36.23;;;26.37;;
39218;SDS011;24934;52.752;6.964;2023-12-14T10:51:43;32.13;;;26.07;;
39218;SDS011;24934;52.752;6.964;2023-12-14T10:54:09;34.63;;;26.30;;
39218;SDS011;24934;52.752;6.964;2023-12-14T10:56:36;36.87;;;26.90;;
39218;SDS011;24934;52.752;6.964;2023-12-14T10:59:01;32.77;;;25.70;;
39218;SDS011;24934;52.752;6.964;2023-12-14T11:01:29;32.20;;;25.70;;
39218;SDS011;24934;52.752;6.964;2023-12-14T11:04:00;33.80;;;25.70;;
39218;SDS011;24934;52.752;6.964;2023-12-14T11:06:27;31.60;;;25.30;;
39218;SDS011;24934;52.752;6.964;2023-12-14T11:08:58;35.73;;;26.20;;
39218;SDS011;24934;52.752;6.964;2023-12-14T11:11:27;33.37;;;26.33;;
39218;SDS011;24934;52.752;6.964;2023-12-14T11:13:53;31.70;;;25.70;;
39218;SDS011;24934;52.752;6.964;2023-12-14T11:16:20;32.60;;;25.57;;
39218;SDS011;24934;52.752;6.964;2023-12-14T11:18:46;35.70;;;25.90;;
39218;SDS011;24934;52.752;6.964;2023-12-14T11:21:19;32.93;;;24.87;;
39218;SDS011;24934;52.752;6.964;2023-12-14T11:23:50;28.17;;;25.03;;
39218;SDS011;24934;52.752;6.964;2023-12-14T11:26:22;28.53;;;25.43;;
39218;SDS011;24934;52.752;6.964;2023-12-14T11:28:53;31.53;;;24.83;;
39218;SDS011;24934;52.752;6.964;2023-12-14T11:31:19;30.60;;;24.47;;
39218;SDS011;24934;52.752;6.964;2023-12-14T11:33:47;32.97;;;25.70;;
39218;SDS011;24934;52.752;6.964;2023-12-14T11:36:13;37.00;;;27.10;;
39218;SDS011;24934;52.752;6.964;2023-12-14T11:38:39;30.87;;;25.77;;
39218;SDS011;24934;52.752;6.964;2023-12-14T11:41:05;29.23;;;25.20;;
39218;SDS011;24934;52.752;6.964;2023-12-14T11:43:41;35.97;;;26.60;;
39218;SDS011;24934;52.752;6.964;2023-12-14T11:46:08;31.20;;;25.23;;
39218;SDS011;24934;52.752;6.964;2023-12-14T11:48:34;33.70;;;26.27;;
39218;SDS011;24934;52.752;6.964;2023-12-14T11:51:00;30.67;;;25.23;;
39218;SDS011;24934;52.752;6.964;2023-12-14T11:53:26;30.50;;;25.73;;
39218;SDS011;24934;52.752;6.964;2023-12-14T11:55:52;31.63;;;26.27;;
39218;SDS011;24934;52.752;6.964;2023-12-14T11:58:18;32.17;;;26.03;;
39218;SDS011;24934;52.752;6.964;2023-12-14T12:00:44;34.97;;;25.97;;
39218;SDS011;24934;52.752;6.964;2023-12-14T12:03:13;32.00;;;25.40;;
39218;SDS011;24934;52.752;6.964;2023-12-14T12:05:46;33.33;;;26.53;;
39218;SDS011;24934;52.752;6.964;2023-12-14T12:08:13;32.97;;;26.23;;
39218;SDS011;24934;52.752;6.964;2023-12-14T12:10:39;32.97;;;25.80;;
39218;SDS011;24934;52.752;6.964;2023-12-14T12:13:06;32.40;;;26.50;;
39218;SDS011;24934;52.752;6.964;2023-12-14T12:15:33;31.17;;;26.27;;
39218;SDS011;24934;52.752;6.964;2023-12-14T12:18:08;34.67;;;26.43;;
39218;SDS011;24934;52.752;6.964;2023-12-14T12:20:34;32.23;;;26.47;;
39218;SDS011;24934;52.752;6.964;2023-12-14T12:23:01;30.80;;;24.93;;
39218;SDS011;24934;52.752;6.964;2023-12-14T12:25:27;31.37;;;25.07;;
39218;SDS011;24934;52.752;6.964;2023-12-14T12:27:54;34.63;;;25.93;;
39218;SDS011;24934;52.752;6.964;2023-12-14T12:30:20;29.23;;;24.47;;
39218;SDS011;24934;52.752;6.964;2023-12-14T12:32:47;30.67;;;24.33;;
39218;SDS011;24934;52.752;6.964;2023-12-14T12:35:13;33.60;;;23.87;;
39218;SDS011;24934;52.752;6.964;2023-12-14T12:37:40;34.70;;;24.60;;
39218;SDS011;24934;52.752;6.964;2023-12-14T12:40:06;28.63;;;24.63;;
39218;SDS011;24934;52.752;6.964;2023-12-14T12:42:32;28.57;;;24.37;;
39218;SDS011;24934;52.752;6.964;2023-12-14T12:44:58;29.57;;;25.00;;
39218;SDS011;24934;52.752;6.964;2023-12-14T12:47:25;33.03;;;25.70;;
39218;SDS011;24934;52.752;6.964;2023-12-14T12:49:51;31.37;;;24.40;;
39218;SDS011;24934;52.752;6.964;2023-12-14T12:52:17;34.43;;;24.80;;
39218;SDS011;24934;52.752;6.964;2023-12-14T12:54:43;31.07;;;24.67;;
39218;SDS011;24934;52.752;6.964;2023-12-14T12:57:09;31.70;;;24.60;;
39218;SDS011;24934;52.752;6.964;2023-12-14T12:59:35;29.13;;;24.90;;
39218;SDS011;24934;52.752;6.964;2023-12-14T13:02:01;29.70;;;24.27;;
39218;SDS011;24934;52.752;6.964;2023-12-14T13:04:27;32.13;;;25.50;;
39218;SDS011;24934;52.752;6.964;2023-12-14T13:06:56;31.13;;;25.17;;
39218;SDS011;24934;52.752;6.964;2023-12-14T13:09:22;32.77;;;25.33;;
39218;SDS011;24934;52.752;6.964;2023-12-14T13:11:48;33.30;;;25.77;;
39218;SDS011;24934;52.752;6.964;2023-12-14T13:14:15;30.00;;;24.83;;
39218;SDS011;24934;52.752;6.964;2023-12-14T13:16:41;29.03;;;24.77;;
39218;SDS011;24934;52.752;6.964;2023-12-14T13:19:08;30.27;;;24.73;;
39218;SDS011;24934;52.752;6.964;2023-12-14T13:21:34;28.73;;;24.07;;
39218;SDS011;24934;52.752;6.964;2023-12-14T13:24:01;29.73;;;25.67;;
39218;SDS011;24934;52.752;6.964;2023-12-14T13:26:27;29.40;;;24.37;;
39218;SDS011;24934;52.752;6.964;2023-12-14T13:28:53;29.63;;;24.60;;
39218;SDS011;24934;52.752;6.964;2023-12-14T13:31:19;30.53;;;24.47;;
39218;SDS011;24934;52.752;6.964;2023-12-14T13:33:45;31.60;;;25.13;;
39218;SDS011;24934;52.752;6.964;2023-12-14T13:36:12;31.67;;;25.17;;
39218;SDS011;24934;52.752;6.964;2023-12-14T13:38:41;30.00;;;24.53;;
39218;SDS011;24934;52.752;6.964;2023-12-14T13:41:10;32.20;;;25.53;;
39218;SDS011;24934;52.752;6.964;2023-12-14T13:43:36;31.60;;;25.30;;
39218;SDS011;24934;52.752;6.964;2023-12-14T13:46:02;31.37;;;24.83;;
39218;SDS011;24934;52.752;6.964;2023-12-14T13:48:28;30.40;;;25.33;;
39218;SDS011;24934;52.752;6.964;2023-12-14T13:50:54;29.90;;;25.67;;
39218;SDS011;24934;52.752;6.964;2023-12-14T13:53:21;30.73;;;25.67;;
39218;SDS011;24934;52.752;6.964;2023-12-14T13:55:47;28.77;;;25.17;;
39218;SDS011;24934;52.752;6.964;2023-12-14T13:58:16;30.20;;;25.87;;
39218;SDS011;24934;52.752;6.964;2023-12-14T14:00:43;29.50;;;25.17;;
39218;SDS011;24934;52.752;6.964;2023-12-14T14:03:09;30.40;;;25.20;;
39218;SDS011;24934;52.752;6.964;2023-12-14T14:05:35;30.17;;;25.03;;
39218;SDS011;24934;52.752;6.964;2023-12-14T14:08:03;29.27;;;25.30;;
39218;SDS011;24934;52.752;6.964;2023-12-14T14:10:29;32.93;;;24.73;;
39218;SDS011;24934;52.752;6.964;2023-12-14T14:12:55;29.27;;;24.73;;
39218;SDS011;24934;52.752;6.964;2023-12-14T14:15:24;28.03;;;24.43;;
39218;SDS011;24934;52.752;6.964;2023-12-14T14:17:50;34.63;;;24.67;;
39218;SDS011;24934;52.752;6.964;2023-12-14T14:20:19;29.33;;;25.57;;
39218;SDS011;24934;52.752;6.964;2023-12-14T14:22:48;28.23;;;24.83;;